sensor_id;sensor_type;location;lat;lon;timestamp;P1;durP1;ratioP1;P2;durP2;ratioP2
70545;SDS011;58098;51.680;5.134;2022-10-26T00:00:06;18.25;;;8.65;;
70545;SDS011;58098;51.680;5.134;2022-10-26T00:02:32;16.70;;;8.23;;
70545;SDS011;58098;51.680;5.134;2022-10-26T00:04:57;18.57;;;8.20;;
70545;SDS011;58098;51.680;5.134;2022-10-26T00:07:22;17.93;;;8.77;;
70545;SDS011;58098;51.680;5.134;2022-10-26T00:09:47;17.17;;;8.50;;
70545;SDS011;58098;51.680;5.134;2022-10-26T00:12:13;14.10;;;8.57;;
70545;SDS011;58098;51.680;5.134;2022-10-26T00:14:38;14.87;;;7.80;;
70545;SDS011;58098;51.680;5.134;2022-10-26T00:17:03;17.17;;;8.07;;
70545;SDS011;58098;51.680;5.134;2022-10-26T00:19:28;13.17;;;7.60;;
70545;SDS011;58098;51.680;5.134;2022-10-26T00:21:56;16.80;;;8.07;;
70545;SDS011;58098;51.680;5.134;2022-10-26T00:24:21;14.47;;;7.97;;
70545;SDS011;58098;51.680;5.134;2022-10-26T00:26:47;13.80;;;8.20;;
70545;SDS011;58098;51.680;5.134;2022-10-26T00:29:12;21.43;;;9.10;;
70545;SDS011;58098;51.680;5.134;2022-10-26T00:31:38;16.50;;;8.40;;
70545;SDS011;58098;51.680;5.134;2022-10-26T00:34:03;17.88;;;8.65;;
70545;SDS011;58098;51.680;5.134;2022-10-26T00:36:29;20.50;;;8.43;;
70545;SDS011;58098;51.680;5.134;2022-10-26T00:38:54;18.87;;;8.23;;
70545;SDS011;58098;51.680;5.134;2022-10-26T00:41:24;25.95;;;8.77;;
70545;SDS011;58098;51.680;5.134;2022-10-26T00:43:50;16.05;;;8.18;;
70545;SDS011;58098;51.680;5.134;2022-10-26T00:46:20;16.30;;;7.97;;
70545;SDS011;58098;51.680;5.134;2022-10-26T00:48:54;12.63;;;7.63;;
70545;SDS011;58098;51.680;5.134;2022-10-26T00:53:49;15.50;;;7.53;;
70545;SDS011;58098;51.680;5.134;2022-10-26T00:56:14;18.47;;;8.10;;
70545;SDS011;58098;51.680;5.134;2022-10-26T00:58:40;18.20;;;8.02;;
70545;SDS011;58098;51.680;5.134;2022-10-26T01:01:05;17.70;;;7.53;;
70545;SDS011;58098;51.680;5.134;2022-10-26T01:03:31;18.73;;;7.80;;
70545;SDS011;58098;51.680;5.134;2022-10-26T01:05:57;14.27;;;7.70;;
70545;SDS011;58098;51.680;5.134;2022-10-26T01:08:22;16.13;;;7.57;;
70545;SDS011;58098;51.680;5.134;2022-10-26T01:10:48;16.37;;;6.73;;
70545;SDS011;58098;51.680;5.134;2022-10-26T01:13:13;16.80;;;8.50;;
70545;SDS011;58098;51.680;5.134;2022-10-26T01:18:29;19.30;;;7.07;;
70545;SDS011;58098;51.680;5.134;2022-10-26T01:21:17;19.85;;;7.53;;
70545;SDS011;58098;51.680;5.134;2022-10-26T01:23:57;16.05;;;7.25;;
70545;SDS011;58098;51.680;5.134;2022-10-26T01:26:33;16.10;;;6.85;;
70545;SDS011;58098;51.680;5.134;2022-10-26T01:29:10;12.77;;;6.90;;
70545;SDS011;58098;51.680;5.134;2022-10-26T01:31:42;19.27;;;7.20;;
70545;SDS011;58098;51.680;5.134;2022-10-26T01:34:10;11.60;;;6.93;;
70545;SDS011;58098;51.680;5.134;2022-10-26T01:36:48;12.55;;;6.95;;
70545;SDS011;58098;51.680;5.134;2022-10-26T01:39:15;13.02;;;6.72;;
70545;SDS011;58098;51.680;5.134;2022-10-26T01:44:13;11.95;;;6.70;;
70545;SDS011;58098;51.680;5.134;2022-10-26T01:46:42;15.07;;;6.50;;
70545;SDS011;58098;51.680;5.134;2022-10-26T01:49:12;17.80;;;6.82;;
70545;SDS011;58098;51.680;5.134;2022-10-26T01:51:38;15.05;;;7.00;;
70545;SDS011;58098;51.680;5.134;2022-10-26T01:54:04;16.35;;;6.38;;
70545;SDS011;58098;51.680;5.134;2022-10-26T01:56:30;14.43;;;6.10;;
70545;SDS011;58098;51.680;5.134;2022-10-26T02:06:57;12.48;;;6.05;;
70545;SDS011;58098;51.680;5.134;2022-10-26T02:11:55;12.13;;;6.05;;
70545;SDS011;58098;51.680;5.134;2022-10-26T02:16:55;15.80;;;6.80;;
70545;SDS011;58098;51.680;5.134;2022-10-26T02:21:55;14.18;;;6.07;;
70545;SDS011;58098;51.680;5.134;2022-10-26T02:24:21;12.30;;;6.17;;
70545;SDS011;58098;51.680;5.134;2022-10-26T02:26:47;13.63;;;6.90;;
70545;SDS011;58098;51.680;5.134;2022-10-26T02:29:15;10.98;;;5.85;;
70545;SDS011;58098;51.680;5.134;2022-10-26T02:31:41;17.07;;;6.67;;
70545;SDS011;58098;51.680;5.134;2022-10-26T02:34:08;17.13;;;6.30;;
70545;SDS011;58098;51.680;5.134;2022-10-26T02:36:35;14.65;;;6.55;;
70545;SDS011;58098;51.680;5.134;2022-10-26T02:39:02;15.98;;;6.32;;
70545;SDS011;58098;51.680;5.134;2022-10-26T02:41:28;12.20;;;6.70;;
70545;SDS011;58098;51.680;5.134;2022-10-26T02:46:38;13.35;;;6.55;;
70545;SDS011;58098;51.680;5.134;2022-10-26T02:49:03;16.37;;;7.33;;
70545;SDS011;58098;51.680;5.134;2022-10-26T02:51:32;15.40;;;6.50;;
70545;SDS011;58098;51.680;5.134;2022-10-26T02:56:35;14.88;;;6.20;;
70545;SDS011;58098;51.680;5.134;2022-10-26T02:59:03;17.38;;;6.93;;
70545;SDS011;58098;51.680;5.134;2022-10-26T03:01:30;13.23;;;6.20;;
70545;SDS011;58098;51.680;5.134;2022-10-26T03:03:57;14.32;;;6.72;;
70545;SDS011;58098;51.680;5.134;2022-10-26T03:06:22;14.30;;;7.40;;
70545;SDS011;58098;51.680;5.134;2022-10-26T03:08:48;16.40;;;6.90;;
70545;SDS011;58098;51.680;5.134;2022-10-26T03:11:13;13.27;;;6.83;;
70545;SDS011;58098;51.680;5.134;2022-10-26T03:13:39;14.27;;;7.40;;
70545;SDS011;58098;51.680;5.134;2022-10-26T03:16:04;16.73;;;7.37;;
70545;SDS011;58098;51.680;5.134;2022-10-26T03:18:29;12.80;;;7.47;;
70545;SDS011;58098;51.680;5.134;2022-10-26T03:20:54;12.80;;;6.27;;
70545;SDS011;58098;51.680;5.134;2022-10-26T03:23:19;18.57;;;7.67;;
70545;SDS011;58098;51.680;5.134;2022-10-26T03:25:45;15.67;;;7.47;;
70545;SDS011;58098;51.680;5.134;2022-10-26T03:28:10;14.27;;;6.87;;
70545;SDS011;58098;51.680;5.134;2022-10-26T03:30:35;12.47;;;6.70;;
70545;SDS011;58098;51.680;5.134;2022-10-26T03:33:00;16.37;;;7.60;;
70545;SDS011;58098;51.680;5.134;2022-10-26T03:35:25;16.07;;;7.00;;
70545;SDS011;58098;51.680;5.134;2022-10-26T03:37:51;15.33;;;7.07;;
70545;SDS011;58098;51.680;5.134;2022-10-26T03:40:16;12.60;;;6.80;;
70545;SDS011;58098;51.680;5.134;2022-10-26T03:42:41;11.93;;;6.03;;
70545;SDS011;58098;51.680;5.134;2022-10-26T03:45:07;12.50;;;6.70;;
70545;SDS011;58098;51.680;5.134;2022-10-26T03:47:32;18.00;;;6.70;;
70545;SDS011;58098;51.680;5.134;2022-10-26T03:49:57;13.10;;;6.83;;
70545;SDS011;58098;51.680;5.134;2022-10-26T03:52:23;15.30;;;6.90;;
70545;SDS011;58098;51.680;5.134;2022-10-26T03:54:48;13.70;;;6.10;;
70545;SDS011;58098;51.680;5.134;2022-10-26T03:57:14;16.93;;;6.03;;
70545;SDS011;58098;51.680;5.134;2022-10-26T03:59:39;14.90;;;6.07;;
70545;SDS011;58098;51.680;5.134;2022-10-26T04:02:05;15.18;;;6.15;;
70545;SDS011;58098;51.680;5.134;2022-10-26T04:04:30;14.27;;;6.80;;
70545;SDS011;58098;51.680;5.134;2022-10-26T04:06:55;12.40;;;6.50;;
70545;SDS011;58098;51.680;5.134;2022-10-26T04:09:20;14.33;;;6.63;;
70545;SDS011;58098;51.680;5.134;2022-10-26T04:11:45;16.67;;;6.13;;
70545;SDS011;58098;51.680;5.134;2022-10-26T04:14:11;11.90;;;6.00;;
70545;SDS011;58098;51.680;5.134;2022-10-26T04:16:36;15.47;;;6.33;;
70545;SDS011;58098;51.680;5.134;2022-10-26T04:19:01;14.80;;;6.20;;
70545;SDS011;58098;51.680;5.134;2022-10-26T04:21:26;12.17;;;5.70;;
70545;SDS011;58098;51.680;5.134;2022-10-26T04:23:52;12.57;;;6.03;;
70545;SDS011;58098;51.680;5.134;2022-10-26T04:26:17;10.23;;;5.57;;
70545;SDS011;58098;51.680;5.134;2022-10-26T04:28:42;14.30;;;5.47;;
70545;SDS011;58098;51.680;5.134;2022-10-26T04:31:07;14.27;;;5.73;;
70545;SDS011;58098;51.680;5.134;2022-10-26T04:33:32;14.93;;;5.63;;
70545;SDS011;58098;51.680;5.134;2022-10-26T04:35:58;11.70;;;5.70;;
70545;SDS011;58098;51.680;5.134;2022-10-26T04:38:24;12.82;;;5.80;;
70545;SDS011;58098;51.680;5.134;2022-10-26T04:40:50;7.80;;;5.20;;
70545;SDS011;58098;51.680;5.134;2022-10-26T04:43:15;17.83;;;6.33;;
70545;SDS011;58098;51.680;5.134;2022-10-26T04:45:40;13.13;;;5.90;;
70545;SDS011;58098;51.680;5.134;2022-10-26T04:48:06;9.53;;;5.27;;
70545;SDS011;58098;51.680;5.134;2022-10-26T04:50:32;15.07;;;5.30;;
70545;SDS011;58098;51.680;5.134;2022-10-26T04:52:57;15.00;;;5.53;;
70545;SDS011;58098;51.680;5.134;2022-10-26T04:55:23;10.30;;;5.37;;
70545;SDS011;58098;51.680;5.134;2022-10-26T04:57:48;16.55;;;5.38;;
70545;SDS011;58098;51.680;5.134;2022-10-26T05:00:13;8.90;;;5.30;;
70545;SDS011;58098;51.680;5.134;2022-10-26T05:02:38;15.40;;;5.60;;
70545;SDS011;58098;51.680;5.134;2022-10-26T05:05:04;13.83;;;6.03;;
70545;SDS011;58098;51.680;5.134;2022-10-26T05:07:29;12.73;;;5.23;;
70545;SDS011;58098;51.680;5.134;2022-10-26T05:09:54;10.23;;;5.60;;
70545;SDS011;58098;51.680;5.134;2022-10-26T05:12:19;11.97;;;5.27;;
70545;SDS011;58098;51.680;5.134;2022-10-26T05:14:44;10.77;;;5.30;;
70545;SDS011;58098;51.680;5.134;2022-10-26T05:17:10;12.43;;;5.13;;
70545;SDS011;58098;51.680;5.134;2022-10-26T05:19:35;16.00;;;4.90;;
70545;SDS011;58098;51.680;5.134;2022-10-26T05:22:00;9.23;;;5.30;;
70545;SDS011;58098;51.680;5.134;2022-10-26T05:24:25;12.03;;;5.67;;
70545;SDS011;58098;51.680;5.134;2022-10-26T05:26:50;19.30;;;5.30;;
70545;SDS011;58098;51.680;5.134;2022-10-26T05:29:16;15.03;;;5.50;;
70545;SDS011;58098;51.680;5.134;2022-10-26T05:31:41;13.97;;;5.60;;
70545;SDS011;58098;51.680;5.134;2022-10-26T05:34:06;12.53;;;5.20;;
70545;SDS011;58098;51.680;5.134;2022-10-26T05:36:31;11.03;;;5.33;;
70545;SDS011;58098;51.680;5.134;2022-10-26T05:38:57;14.23;;;5.57;;
70545;SDS011;58098;51.680;5.134;2022-10-26T05:41:22;13.93;;;5.97;;
70545;SDS011;58098;51.680;5.134;2022-10-26T05:43:47;13.43;;;5.27;;
70545;SDS011;58098;51.680;5.134;2022-10-26T05:46:12;12.17;;;5.40;;
70545;SDS011;58098;51.680;5.134;2022-10-26T05:48:38;10.43;;;5.37;;
70545;SDS011;58098;51.680;5.134;2022-10-26T05:51:03;10.30;;;5.57;;
70545;SDS011;58098;51.680;5.134;2022-10-26T05:53:28;14.47;;;6.03;;
70545;SDS011;58098;51.680;5.134;2022-10-26T05:55:54;13.20;;;4.90;;
70545;SDS011;58098;51.680;5.134;2022-10-26T05:58:19;15.90;;;5.30;;
70545;SDS011;58098;51.680;5.134;2022-10-26T06:00:54;11.37;;;5.27;;
70545;SDS011;58098;51.680;5.134;2022-10-26T06:05:54;13.52;;;5.50;;
70545;SDS011;58098;51.680;5.134;2022-10-26T06:08:21;11.65;;;5.07;;
70545;SDS011;58098;51.680;5.134;2022-10-26T06:10:46;10.02;;;4.40;;
70545;SDS011;58098;51.680;5.134;2022-10-26T06:13:11;10.17;;;4.37;;
70545;SDS011;58098;51.680;5.134;2022-10-26T06:15:42;14.17;;;4.70;;
70545;SDS011;58098;51.680;5.134;2022-10-26T06:18:15;12.85;;;5.18;;
70545;SDS011;58098;51.680;5.134;2022-10-26T06:23:31;12.23;;;4.80;;
70545;SDS011;58098;51.680;5.134;2022-10-26T06:30:48;16.00;;;4.90;;
70545;SDS011;58098;51.680;5.134;2022-10-26T06:33:13;17.00;;;5.90;;
70545;SDS011;58098;51.680;5.134;2022-10-26T06:38:06;12.65;;;4.95;;
70545;SDS011;58098;51.680;5.134;2022-10-26T06:40:32;8.20;;;4.80;;
70545;SDS011;58098;51.680;5.134;2022-10-26T06:42:59;11.43;;;4.25;;
70545;SDS011;58098;51.680;5.134;2022-10-26T06:45:24;10.83;;;4.63;;
70545;SDS011;58098;51.680;5.134;2022-10-26T06:55:36;12.07;;;4.50;;
70545;SDS011;58098;51.680;5.134;2022-10-26T06:58:03;9.45;;;4.60;;
70545;SDS011;58098;51.680;5.134;2022-10-26T07:00:29;11.37;;;4.53;;
70545;SDS011;58098;51.680;5.134;2022-10-26T07:02:55;14.73;;;4.68;;
70545;SDS011;58098;51.680;5.134;2022-10-26T07:05:22;12.93;;;5.05;;
70545;SDS011;58098;51.680;5.134;2022-10-26T07:07:47;8.60;;;4.67;;
70545;SDS011;58098;51.680;5.134;2022-10-26T07:10:13;13.27;;;5.20;;
70545;SDS011;58098;51.680;5.134;2022-10-26T07:12:38;9.87;;;4.40;;
70545;SDS011;58098;51.680;5.134;2022-10-26T07:15:04;12.23;;;4.40;;
70545;SDS011;58098;51.680;5.134;2022-10-26T07:17:29;11.27;;;4.70;;
70545;SDS011;58098;51.680;5.134;2022-10-26T07:19:55;15.30;;;4.50;;
70545;SDS011;58098;51.680;5.134;2022-10-26T07:22:20;6.80;;;4.30;;
70545;SDS011;58098;51.680;5.134;2022-10-26T07:24:45;10.33;;;4.80;;
70545;SDS011;58098;51.680;5.134;2022-10-26T07:27:14;14.57;;;4.90;;
70545;SDS011;58098;51.680;5.134;2022-10-26T07:29:39;9.97;;;4.97;;
70545;SDS011;58098;51.680;5.134;2022-10-26T07:32:04;8.90;;;4.67;;
70545;SDS011;58098;51.680;5.134;2022-10-26T07:34:30;9.90;;;5.20;;
70545;SDS011;58098;51.680;5.134;2022-10-26T07:36:55;14.77;;;5.27;;
70545;SDS011;58098;51.680;5.134;2022-10-26T07:39:20;10.87;;;4.77;;
70545;SDS011;58098;51.680;5.134;2022-10-26T07:41:45;8.70;;;4.93;;
70545;SDS011;58098;51.680;5.134;2022-10-26T07:44:11;12.95;;;4.97;;
70545;SDS011;58098;51.680;5.134;2022-10-26T07:46:36;14.10;;;4.80;;
70545;SDS011;58098;51.680;5.134;2022-10-26T07:49:01;8.93;;;4.50;;
70545;SDS011;58098;51.680;5.134;2022-10-26T07:51:26;10.87;;;4.70;;
70545;SDS011;58098;51.680;5.134;2022-10-26T07:53:52;9.63;;;4.07;;
70545;SDS011;58098;51.680;5.134;2022-10-26T07:56:17;7.57;;;3.90;;
70545;SDS011;58098;51.680;5.134;2022-10-26T07:58:42;11.50;;;4.27;;
70545;SDS011;58098;51.680;5.134;2022-10-26T08:01:08;16.03;;;4.50;;
70545;SDS011;58098;51.680;5.134;2022-10-26T08:03:34;6.10;;;4.00;;
70545;SDS011;58098;51.680;5.134;2022-10-26T08:05:59;12.57;;;4.47;;
70545;SDS011;58098;51.680;5.134;2022-10-26T08:08:24;8.13;;;4.95;;
70545;SDS011;58098;51.680;5.134;2022-10-26T08:10:49;11.80;;;4.17;;
70545;SDS011;58098;51.680;5.134;2022-10-26T08:13:16;13.03;;;4.30;;
70545;SDS011;58098;51.680;5.134;2022-10-26T08:15:41;7.57;;;4.70;;
70545;SDS011;58098;51.680;5.134;2022-10-26T08:18:06;9.20;;;4.80;;
70545;SDS011;58098;51.680;5.134;2022-10-26T08:20:31;10.80;;;5.00;;
70545;SDS011;58098;51.680;5.134;2022-10-26T08:22:57;12.60;;;4.65;;
70545;SDS011;58098;51.680;5.134;2022-10-26T08:25:22;12.73;;;5.30;;
70545;SDS011;58098;51.680;5.134;2022-10-26T08:27:48;14.30;;;6.10;;
70545;SDS011;58098;51.680;5.134;2022-10-26T08:30:13;11.20;;;5.17;;
70545;SDS011;58098;51.680;5.134;2022-10-26T08:32:38;9.83;;;5.10;;
70545;SDS011;58098;51.680;5.134;2022-10-26T08:35:03;10.97;;;4.67;;
70545;SDS011;58098;51.680;5.134;2022-10-26T08:37:29;10.33;;;5.00;;
70545;SDS011;58098;51.680;5.134;2022-10-26T08:39:54;12.17;;;4.50;;
70545;SDS011;58098;51.680;5.134;2022-10-26T08:42:24;13.30;;;4.33;;
70545;SDS011;58098;51.680;5.134;2022-10-26T08:44:53;12.05;;;4.57;;
70545;SDS011;58098;51.680;5.134;2022-10-26T08:47:22;10.07;;;3.72;;
70545;SDS011;58098;51.680;5.134;2022-10-26T08:49:56;11.75;;;4.47;;
70545;SDS011;58098;51.680;5.134;2022-10-26T08:52:24;9.20;;;3.67;;
70545;SDS011;58098;51.680;5.134;2022-10-26T08:54:51;8.95;;;4.00;;
70545;SDS011;58098;51.680;5.134;2022-10-26T08:57:34;9.98;;;3.83;;
70545;SDS011;58098;51.680;5.134;2022-10-26T09:00:04;13.40;;;3.85;;
70545;SDS011;58098;51.680;5.134;2022-10-26T09:02:30;8.90;;;3.67;;
70545;SDS011;58098;51.680;5.134;2022-10-26T09:04:56;7.43;;;3.50;;
70545;SDS011;58098;51.680;5.134;2022-10-26T09:12:22;9.70;;;3.50;;
70545;SDS011;58098;51.680;5.134;2022-10-26T09:14:56;6.70;;;3.47;;
70545;SDS011;58098;51.680;5.134;2022-10-26T09:19:59;9.20;;;3.00;;
70545;SDS011;58098;51.680;5.134;2022-10-26T09:22:26;10.63;;;3.45;;
70545;SDS011;58098;51.680;5.134;2022-10-26T09:24:56;8.20;;;3.17;;
70545;SDS011;58098;51.680;5.134;2022-10-26T09:29:50;10.90;;;3.40;;
70545;SDS011;58098;51.680;5.134;2022-10-26T09:32:18;7.57;;;3.33;;
70545;SDS011;58098;51.680;5.134;2022-10-26T09:34:54;8.00;;;3.17;;
70545;SDS011;58098;51.680;5.134;2022-10-26T09:37:22;8.10;;;3.05;;
70545;SDS011;58098;51.680;5.134;2022-10-26T09:42:37;6.88;;;3.10;;
70545;SDS011;58098;51.680;5.134;2022-10-26T09:45:05;5.60;;;2.90;;
70545;SDS011;58098;51.680;5.134;2022-10-26T09:47:36;11.33;;;2.87;;
70545;SDS011;58098;51.680;5.134;2022-10-26T09:52:30;9.60;;;2.90;;
70545;SDS011;58098;51.680;5.134;2022-10-26T09:54:55;5.97;;;2.60;;
70545;SDS011;58098;51.680;5.134;2022-10-26T09:57:20;9.57;;;3.47;;
70545;SDS011;58098;51.680;5.134;2022-10-26T09:59:46;7.23;;;2.87;;
70545;SDS011;58098;51.680;5.134;2022-10-26T10:04:55;10.00;;;3.35;;
70545;SDS011;58098;51.680;5.134;2022-10-26T10:07:21;6.13;;;2.97;;
70545;SDS011;58098;51.680;5.134;2022-10-26T10:09:53;9.53;;;3.23;;
70545;SDS011;58098;51.680;5.134;2022-10-26T10:12:29;8.90;;;2.80;;
70545;SDS011;58098;51.680;5.134;2022-10-26T10:14:55;8.63;;;3.10;;
70545;SDS011;58098;51.680;5.134;2022-10-26T10:17:21;10.82;;;3.30;;
70545;SDS011;58098;51.680;5.134;2022-10-26T10:19:47;8.87;;;2.87;;
70545;SDS011;58098;51.680;5.134;2022-10-26T10:24:42;8.80;;;3.57;;
70545;SDS011;58098;51.680;5.134;2022-10-26T10:27:16;11.18;;;3.28;;
70545;SDS011;58098;51.680;5.134;2022-10-26T10:29:46;8.43;;;3.30;;
70545;SDS011;58098;51.680;5.134;2022-10-26T10:32:18;9.00;;;3.53;;
70545;SDS011;58098;51.680;5.134;2022-10-26T10:34:50;9.50;;;3.38;;
70545;SDS011;58098;51.680;5.134;2022-10-26T10:37:26;9.73;;;3.72;;
70545;SDS011;58098;51.680;5.134;2022-10-26T10:39:56;13.73;;;4.13;;
70545;SDS011;58098;51.680;5.134;2022-10-26T10:42:24;9.27;;;3.90;;
70545;SDS011;58098;51.680;5.134;2022-10-26T10:44:52;6.63;;;3.33;;
70545;SDS011;58098;51.680;5.134;2022-10-26T10:47:31;9.80;;;3.58;;
70545;SDS011;58098;51.680;5.134;2022-10-26T10:50:06;7.32;;;3.65;;
70545;SDS011;58098;51.680;5.134;2022-10-26T10:52:32;8.15;;;3.90;;
70545;SDS011;58098;51.680;5.134;2022-10-26T10:55:02;8.85;;;4.22;;
70545;SDS011;58098;51.680;5.134;2022-10-26T10:57:32;8.13;;;4.17;;
70545;SDS011;58098;51.680;5.134;2022-10-26T11:00:07;9.25;;;4.40;;
70545;SDS011;58098;51.680;5.134;2022-10-26T11:02:51;14.13;;;4.05;;
70545;SDS011;58098;51.680;5.134;2022-10-26T11:08:16;9.98;;;4.72;;
70545;SDS011;58098;51.680;5.134;2022-10-26T11:10:49;6.37;;;4.27;;
70545;SDS011;58098;51.680;5.134;2022-10-26T11:13:19;14.02;;;5.35;;
70545;SDS011;58098;51.680;5.134;2022-10-26T11:15:46;7.75;;;5.13;;
70545;SDS011;58098;51.680;5.134;2022-10-26T11:18:15;9.45;;;4.70;;
70545;SDS011;58098;51.680;5.134;2022-10-26T11:20:45;12.00;;;5.13;;
70545;SDS011;58098;51.680;5.134;2022-10-26T11:23:13;7.13;;;4.83;;
70545;SDS011;58098;51.680;5.134;2022-10-26T11:25:47;9.27;;;5.28;;
70545;SDS011;58098;51.680;5.134;2022-10-26T11:28:15;9.07;;;5.10;;
70545;SDS011;58098;51.680;5.134;2022-10-26T11:30:49;13.15;;;5.93;;
70545;SDS011;58098;51.680;5.134;2022-10-26T11:33:21;9.00;;;5.00;;
70545;SDS011;58098;51.680;5.134;2022-10-26T11:38:20;9.75;;;4.97;;
70545;SDS011;58098;51.680;5.134;2022-10-26T11:40:51;9.40;;;5.13;;
70545;SDS011;58098;51.680;5.134;2022-10-26T11:48:44;7.78;;;5.15;;
70545;SDS011;58098;51.680;5.134;2022-10-26T11:51:15;7.93;;;4.80;;
70545;SDS011;58098;51.680;5.134;2022-10-26T11:53:41;7.22;;;4.82;;
70545;SDS011;58098;51.680;5.134;2022-10-26T11:56:15;10.05;;;4.93;;
70545;SDS011;58098;51.680;5.134;2022-10-26T11:58:43;8.23;;;4.80;;
70545;SDS011;58098;51.680;5.134;2022-10-26T12:01:09;7.50;;;4.50;;
70545;SDS011;58098;51.680;5.134;2022-10-26T12:03:36;9.65;;;4.22;;
70545;SDS011;58098;51.680;5.134;2022-10-26T12:06:02;7.28;;;4.57;;
70545;SDS011;58098;51.680;5.134;2022-10-26T12:08:30;10.63;;;4.60;;
70545;SDS011;58098;51.680;5.134;2022-10-26T12:13:46;7.28;;;4.82;;
70545;SDS011;58098;51.680;5.134;2022-10-26T12:18:52;9.63;;;4.30;;
70545;SDS011;58098;51.680;5.134;2022-10-26T12:21:19;9.27;;;3.60;;
70545;SDS011;58098;51.680;5.134;2022-10-26T12:31:39;10.50;;;4.28;;
70545;SDS011;58098;51.680;5.134;2022-10-26T12:34:11;6.93;;;4.07;;
70545;SDS011;58098;51.680;5.134;2022-10-26T12:41:56;6.43;;;4.10;;
70545;SDS011;58098;51.680;5.134;2022-10-26T12:47:04;7.68;;;2.95;;
70545;SDS011;58098;51.680;5.134;2022-10-26T12:52:19;9.73;;;2.83;;
70545;SDS011;58098;51.680;5.134;2022-10-26T12:55:29;7.47;;;2.20;;
70545;SDS011;58098;51.680;5.134;2022-10-26T13:00:21;3.47;;;1.77;;
70545;SDS011;58098;51.680;5.134;2022-10-26T13:02:57;6.07;;;1.65;;
70545;SDS011;58098;51.680;5.134;2022-10-26T13:07:49;7.78;;;2.78;;
70545;SDS011;58098;51.680;5.134;2022-10-26T13:12:53;6.60;;;2.22;;
70545;SDS011;58098;51.680;5.134;2022-10-26T13:15:23;6.80;;;2.17;;
70545;SDS011;58098;51.680;5.134;2022-10-26T13:18:35;5.43;;;2.40;;
70545;SDS011;58098;51.680;5.134;2022-10-26T13:20:50;6.90;;;2.40;;
70545;SDS011;58098;51.680;5.134;2022-10-26T13:23:18;6.65;;;2.13;;
70545;SDS011;58098;51.680;5.134;2022-10-26T13:25:59;7.20;;;2.22;;
70545;SDS011;58098;51.680;5.134;2022-10-26T13:33:47;4.95;;;2.08;;
70545;SDS011;58098;51.680;5.134;2022-10-26T13:36:20;5.13;;;2.08;;
70545;SDS011;58098;51.680;5.134;2022-10-26T13:38:48;4.18;;;1.73;;
70545;SDS011;58098;51.680;5.134;2022-10-26T13:41:24;5.33;;;2.00;;
70545;SDS011;58098;51.680;5.134;2022-10-26T13:43:53;4.03;;;1.98;;
70545;SDS011;58098;51.680;5.134;2022-10-26T13:46:22;5.53;;;1.80;;
70545;SDS011;58098;51.680;5.134;2022-10-26T13:48:48;8.55;;;1.90;;
70545;SDS011;58098;51.680;5.134;2022-10-26T13:51:18;5.63;;;1.90;;
70545;SDS011;58098;51.680;5.134;2022-10-26T13:59:01;6.88;;;1.85;;
70545;SDS011;58098;51.680;5.134;2022-10-26T14:01:27;9.63;;;1.93;;
70545;SDS011;58098;51.680;5.134;2022-10-26T14:03:53;6.72;;;2.00;;
70545;SDS011;58098;51.680;5.134;2022-10-26T14:08:46;5.53;;;1.92;;
70545;SDS011;58098;51.680;5.134;2022-10-26T14:11:14;6.55;;;2.13;;
70545;SDS011;58098;51.680;5.134;2022-10-26T14:13:41;5.63;;;1.90;;
70545;SDS011;58098;51.680;5.134;2022-10-26T14:16:06;7.80;;;2.17;;
70545;SDS011;58098;51.680;5.134;2022-10-26T14:18:32;9.50;;;1.90;;
70545;SDS011;58098;51.680;5.134;2022-10-26T14:21:02;7.93;;;1.90;;
70545;SDS011;58098;51.680;5.134;2022-10-26T14:23:32;7.63;;;1.98;;
70545;SDS011;58098;51.680;5.134;2022-10-26T14:25:57;7.95;;;2.20;;
70545;SDS011;58098;51.680;5.134;2022-10-26T14:28:27;5.37;;;1.90;;
70545;SDS011;58098;51.680;5.134;2022-10-26T14:30:53;9.73;;;2.20;;
70545;SDS011;58098;51.680;5.134;2022-10-26T14:33:22;6.97;;;1.88;;
70545;SDS011;58098;51.680;5.134;2022-10-26T14:35:49;5.47;;;2.00;;
70545;SDS011;58098;51.680;5.134;2022-10-26T14:38:19;8.18;;;1.92;;
70545;SDS011;58098;51.680;5.134;2022-10-26T14:40:45;6.65;;;2.40;;
70545;SDS011;58098;51.680;5.134;2022-10-26T14:43:15;6.53;;;1.90;;
70545;SDS011;58098;51.680;5.134;2022-10-26T14:45:43;6.10;;;2.03;;
70545;SDS011;58098;51.680;5.134;2022-10-26T14:48:22;8.55;;;2.45;;
70545;SDS011;58098;51.680;5.134;2022-10-26T14:53:52;13.10;;;2.50;;
70545;SDS011;58098;51.680;5.134;2022-10-26T14:56:37;8.15;;;2.05;;
70545;SDS011;58098;51.680;5.134;2022-10-26T15:01:54;6.60;;;1.90;;
70545;SDS011;58098;51.680;5.134;2022-10-26T15:04:25;7.32;;;2.40;;
70545;SDS011;58098;51.680;5.134;2022-10-26T15:06:51;9.80;;;2.55;;
70545;SDS011;58098;51.680;5.134;2022-10-26T15:09:36;8.60;;;2.20;;
70545;SDS011;58098;51.680;5.134;2022-10-26T15:12:02;7.70;;;1.95;;
70545;SDS011;58098;51.680;5.134;2022-10-26T15:14:28;9.53;;;1.73;;
70545;SDS011;58098;51.680;5.134;2022-10-26T15:16:54;6.03;;;1.95;;
70545;SDS011;58098;51.680;5.134;2022-10-26T15:19:20;7.00;;;2.03;;
70545;SDS011;58098;51.680;5.134;2022-10-26T15:21:47;6.70;;;2.20;;
70545;SDS011;58098;51.680;5.134;2022-10-26T15:24:31;8.13;;;2.10;;
70545;SDS011;58098;51.680;5.134;2022-10-26T15:26:56;10.52;;;2.58;;
70545;SDS011;58098;51.680;5.134;2022-10-26T15:29:35;8.27;;;2.53;;
70545;SDS011;58098;51.680;5.134;2022-10-26T15:32:01;9.25;;;2.35;;
70545;SDS011;58098;51.680;5.134;2022-10-26T15:34:27;5.57;;;2.10;;
70545;SDS011;58098;51.680;5.134;2022-10-26T15:36:52;8.20;;;2.43;;
70545;SDS011;58098;51.680;5.134;2022-10-26T15:39:17;6.73;;;2.10;;
70545;SDS011;58098;51.680;5.134;2022-10-26T15:41:44;7.77;;;1.90;;
70545;SDS011;58098;51.680;5.134;2022-10-26T15:44:11;5.78;;;2.13;;
70545;SDS011;58098;51.680;5.134;2022-10-26T15:46:38;7.60;;;2.03;;
70545;SDS011;58098;51.680;5.134;2022-10-26T15:49:04;8.73;;;1.80;;
70545;SDS011;58098;51.680;5.134;2022-10-26T15:51:29;6.10;;;1.80;;
70545;SDS011;58098;51.680;5.134;2022-10-26T15:53:58;6.82;;;2.00;;
70545;SDS011;58098;51.680;5.134;2022-10-26T15:56:24;8.37;;;2.50;;
70545;SDS011;58098;51.680;5.134;2022-10-26T15:58:50;9.18;;;2.30;;
70545;SDS011;58098;51.680;5.134;2022-10-26T16:01:16;6.05;;;2.08;;
70545;SDS011;58098;51.680;5.134;2022-10-26T16:03:42;6.20;;;1.93;;
70545;SDS011;58098;51.680;5.134;2022-10-26T16:06:08;6.20;;;2.10;;
70545;SDS011;58098;51.680;5.134;2022-10-26T16:08:37;10.90;;;2.30;;
70545;SDS011;58098;51.680;5.134;2022-10-26T16:11:02;7.32;;;2.00;;
70545;SDS011;58098;51.680;5.134;2022-10-26T16:13:28;7.73;;;2.33;;
70545;SDS011;58098;51.680;5.134;2022-10-26T16:15:54;6.00;;;2.10;;
70545;SDS011;58098;51.680;5.134;2022-10-26T16:18:19;8.53;;;2.00;;
70545;SDS011;58098;51.680;5.134;2022-10-26T16:20:44;13.33;;;2.53;;
70545;SDS011;58098;51.680;5.134;2022-10-26T16:23:10;6.87;;;2.10;;
70545;SDS011;58098;51.680;5.134;2022-10-26T16:25:42;6.70;;;2.43;;
70545;SDS011;58098;51.680;5.134;2022-10-26T16:28:08;9.18;;;2.60;;
70545;SDS011;58098;51.680;5.134;2022-10-26T16:30:34;8.55;;;2.50;;
70545;SDS011;58098;51.680;5.134;2022-10-26T16:33:00;14.33;;;3.07;;
70545;SDS011;58098;51.680;5.134;2022-10-26T16:35:26;7.90;;;2.80;;
70545;SDS011;58098;51.680;5.134;2022-10-26T16:37:51;7.10;;;2.93;;
70545;SDS011;58098;51.680;5.134;2022-10-26T16:40:16;12.07;;;3.47;;
70545;SDS011;58098;51.680;5.134;2022-10-26T16:42:41;11.90;;;3.83;;
70545;SDS011;58098;51.680;5.134;2022-10-26T16:45:09;9.10;;;4.03;;
70545;SDS011;58098;51.680;5.134;2022-10-26T16:47:34;9.43;;;2.95;;
70545;SDS011;58098;51.680;5.134;2022-10-26T16:50:00;8.38;;;2.65;;
70545;SDS011;58098;51.680;5.134;2022-10-26T16:52:26;7.63;;;2.93;;